Portada
METAR-TAF:

METAR-TAF

Aeroports :

Wasilla, Alaska, Estats Units d'Amèrica

latitud: 61-34-19N, longitud: 149-32-26W, altitud: 106 m

Observació

L'informe es va fer fa 10 minuts, a les 08:34 UTC
Vent 4 kt del Est
Temperatura -11°C
Humitat 92%
Pressió 1001 hPa
Visibilitat: 8.0 km
Núvols disperses a una alçada de 2000 ft
Cel ennuvolat a una alçada de 2600 ft
Cel cobert a una alçada de 3300 ft
neu, boirina

METAR: PAWS 220834Z AUTO 09004KT 5SM -SN BR SCT020 BKN026 OVC033 M11/M12 A2956 RMK AO2 P0000 FZRANO

Hora: 23:44 (08:44 UTC)


TAF: manca

Observacions i pronòstics meteorològics de més de 4000 aeroports (METAR i TAF).

Les estacions disponibles són els punts grocs i vermells al mapa.

Posi el ratolí al punt desitjat per veure el nom de l'estació.

Feu clic per veure les observacions i els pronòstics meteorològics.

Per canviar el mapa: feu clic els botons verds amb una creu de color negre per apropar; al botó verd amb un guió per allunyar la imatge; o en les fletxes verdes per a mapes adjacents.


METAR-TAF: